createdAt,value
2022-07-26T00:00:13.577Z,0.00
2022-07-26T00:01:13.608Z,0.00
2022-07-26T00:02:18.233Z,0.00
2022-07-26T00:03:13.550Z,0.00
2022-07-26T00:04:13.557Z,0.00
2022-07-26T00:05:13.525Z,0.00
2022-07-26T00:06:13.518Z,0.00
2022-07-26T00:07:13.507Z,0.00
2022-07-26T00:08:13.495Z,0.00
2022-07-26T00:09:13.507Z,0.00
2022-07-26T00:10:13.468Z,0.00
2022-07-26T00:11:13.452Z,0.00
2022-07-26T00:12:13.442Z,0.00
2022-07-26T00:13:13.439Z,0.00
2022-07-26T00:14:13.432Z,0.00
2022-07-26T00:15:13.416Z,0.00
2022-07-26T00:16:13.530Z,0.00
2022-07-26T00:17:13.386Z,0.00
2022-07-26T00:18:13.374Z,0.00
2022-07-26T00:19:13.389Z,0.00
2022-07-26T00:20:13.360Z,0.00
2022-07-26T00:21:13.348Z,0.00
2022-07-26T00:22:13.332Z,0.00
2022-07-26T00:23:13.347Z,0.00
2022-07-26T00:24:13.322Z,0.00
2022-07-26T00:25:13.311Z,0.00
2022-07-26T00:26:13.292Z,0.00
2022-07-26T00:27:13.274Z,0.00
2022-07-26T00:28:13.274Z,0.00
2022-07-26T00:29:13.282Z,0.00
2022-07-26T00:30:13.239Z,0.00
2022-07-26T00:31:13.334Z,0.00
2022-07-26T00:32:13.220Z,0.00
2022-07-26T00:33:13.212Z,0.00
2022-07-26T00:34:13.221Z,0.00
2022-07-26T00:35:13.182Z,0.00
2022-07-26T00:36:13.179Z,0.00
2022-07-26T00:37:17.097Z,0.00
2022-07-26T00:38:14.157Z,0.00
2022-07-26T00:39:13.152Z,0.00
2022-07-26T00:40:13.133Z,0.00
2022-07-26T00:41:13.123Z,0.00
2022-07-26T00:42:13.104Z,0.00
2022-07-26T00:43:13.091Z,0.00
2022-07-26T00:44:13.110Z,0.00
2022-07-26T00:45:13.079Z,0.00
2022-07-26T00:46:13.120Z,0.00
2022-07-26T00:47:13.054Z,0.00
2022-07-26T00:48:13.039Z,0.00
2022-07-26T00:49:13.503Z,0.00
2022-07-26T00:50:13.030Z,0.00
2022-07-26T00:51:13.003Z,0.00
2022-07-26T00:52:13.012Z,0.00
2022-07-26T00:53:12.983Z,0.00
2022-07-26T00:54:12.991Z,0.00
2022-07-26T00:55:12.970Z,0.00
2022-07-26T00:56:12.949Z,0.00
2022-07-26T00:57:12.943Z,0.00
2022-07-26T00:58:12.933Z,0.00
2022-07-26T00:59:12.935Z,0.00
2022-07-26T01:00:12.904Z,0.00
2022-07-26T01:01:12.999Z,0.00
2022-07-26T01:02:12.929Z,0.00
2022-07-26T01:03:12.870Z,0.00
2022-07-26T01:04:12.905Z,0.00
2022-07-26T01:05:12.853Z,0.00
2022-07-26T01:06:12.838Z,0.00
2022-07-26T01:07:15.047Z,0.00
2022-07-26T01:08:12.822Z,0.00
2022-07-26T01:09:12.804Z,0.00
2022-07-26T01:10:12.944Z,0.00
2022-07-26T01:11:12.785Z,0.00
2022-07-26T01:12:12.819Z,0.00
2022-07-26T01:13:12.763Z,0.00
2022-07-26T01:14:12.752Z,0.00
2022-07-26T01:15:12.755Z,0.00
2022-07-26T01:16:12.831Z,0.00
2022-07-26T01:17:12.714Z,0.00
2022-07-26T01:18:12.702Z,0.00
2022-07-26T01:19:12.701Z,0.00
2022-07-26T01:20:12.706Z,0.00
2022-07-26T01:21:13.441Z,0.00
2022-07-26T01:22:14.771Z,0.00
2022-07-26T01:23:12.655Z,0.00
2022-07-26T01:24:12.646Z,0.00
2022-07-26T01:25:12.637Z,0.00
2022-07-26T01:26:12.720Z,0.00
2022-07-26T01:27:12.601Z,0.00
2022-07-26T01:28:20.191Z,0.00
2022-07-26T01:29:13.586Z,0.00
2022-07-26T01:30:12.594Z,0.00
2022-07-26T01:31:12.636Z,0.00
2022-07-26T01:32:12.545Z,0.00
2022-07-26T01:33:12.544Z,0.00
2022-07-26T01:34:12.530Z,0.00
2022-07-26T01:35:12.523Z,0.00
2022-07-26T01:36:12.503Z,0.00
2022-07-26T01:37:12.496Z,0.00
2022-07-26T01:38:12.483Z,0.00
2022-07-26T01:39:12.478Z,0.00
2022-07-26T01:40:12.479Z,0.00
2022-07-26T01:41:12.443Z,0.00
2022-07-26T01:42:12.442Z,0.00
2022-07-26T01:43:12.444Z,0.00
2022-07-26T01:44:12.996Z,0.00
2022-07-26T01:45:12.414Z,0.00
2022-07-26T01:46:12.460Z,0.00
2022-07-26T01:47:12.376Z,0.00
2022-07-26T01:48:12.370Z,0.00
2022-07-26T01:49:12.443Z,0.00
2022-07-26T01:50:12.361Z,0.00
2022-07-26T01:51:12.333Z,0.00
2022-07-26T01:52:12.323Z,0.00
2022-07-26T01:53:12.309Z,0.00
2022-07-26T01:54:12.566Z,0.00
2022-07-26T01:55:12.303Z,0.00
2022-07-26T01:56:12.299Z,0.00
2022-07-26T01:57:12.276Z,0.00
2022-07-26T01:58:12.262Z,0.00
2022-07-26T01:59:12.249Z,0.00
2022-07-26T02:00:12.249Z,0.00
2022-07-26T02:01:12.257Z,0.00
2022-07-26T02:02:12.323Z,0.00
2022-07-26T02:03:12.288Z,0.00
2022-07-26T02:04:12.505Z,0.00
2022-07-26T02:05:12.189Z,0.00
2022-07-26T02:06:12.172Z,0.00
2022-07-26T02:07:13.062Z,0.00
2022-07-26T02:08:12.143Z,0.00
2022-07-26T02:09:13.198Z,0.00
2022-07-26T02:10:12.160Z,0.00
2022-07-26T02:11:12.120Z,0.00
2022-07-26T02:12:12.097Z,0.00
2022-07-26T02:13:12.099Z,0.00
2022-07-26T02:14:12.082Z,0.00
2022-07-26T02:15:13.072Z,0.00
2022-07-26T02:16:12.138Z,0.00
2022-07-26T02:17:12.041Z,0.00
2022-07-26T02:18:12.036Z,0.00
2022-07-26T02:19:12.019Z,0.00
2022-07-26T02:20:12.037Z,0.00
2022-07-26T02:21:12.006Z,0.00
2022-07-26T02:22:11.986Z,0.00
2022-07-26T02:23:11.978Z,0.00
2022-07-26T02:24:11.961Z,0.00
2022-07-26T02:25:11.976Z,0.00
2022-07-26T02:26:11.952Z,0.00
2022-07-26T02:27:11.927Z,0.00
2022-07-26T02:28:11.920Z,0.00
2022-07-26T02:29:11.910Z,0.00
2022-07-26T02:30:11.914Z,0.00
2022-07-26T02:31:11.939Z,0.00
2022-07-26T02:32:11.884Z,0.00
2022-07-26T02:33:11.869Z,0.00
2022-07-26T02:34:11.857Z,0.00
2022-07-26T02:35:11.848Z,0.00
2022-07-26T02:36:11.834Z,0.00
2022-07-26T02:37:11.821Z,0.00
2022-07-26T02:38:11.813Z,0.00
2022-07-26T02:39:11.817Z,0.00
2022-07-26T02:40:16.876Z,0.00
2022-07-26T02:41:12.770Z,0.00
2022-07-26T02:42:11.770Z,0.00
2022-07-26T02:43:11.750Z,0.00
2022-07-26T02:44:12.112Z,0.00
2022-07-26T02:45:11.742Z,0.00
2022-07-26T02:46:11.807Z,0.00
2022-07-26T02:47:12.651Z,0.00
2022-07-26T02:48:11.696Z,0.00
2022-07-26T02:49:11.735Z,0.00
2022-07-26T02:50:11.696Z,0.00
2022-07-26T02:51:11.665Z,0.00
2022-07-26T02:52:11.655Z,0.00
2022-07-26T02:53:11.645Z,0.00
2022-07-26T02:54:12.120Z,0.00
2022-07-26T02:55:11.636Z,0.00
2022-07-26T02:56:11.614Z,0.00
2022-07-26T02:57:11.601Z,0.00
2022-07-26T02:58:11.590Z,0.00
2022-07-26T02:59:11.568Z,0.00
2022-07-26T03:00:11.576Z,0.00
2022-07-26T03:01:11.576Z,0.00
2022-07-26T03:02:11.547Z,0.00
2022-07-26T03:03:11.631Z,0.00
2022-07-26T03:04:11.724Z,0.00
2022-07-26T03:05:11.528Z,0.00
2022-07-26T03:06:11.491Z,0.00
2022-07-26T03:07:11.480Z,0.00
2022-07-26T03:08:11.476Z,0.00
2022-07-26T03:09:11.462Z,0.00
2022-07-26T03:10:11.460Z,0.00
2022-07-26T03:11:12.233Z,0.00
2022-07-26T03:12:11.423Z,0.00
2022-07-26T03:13:11.432Z,0.00
2022-07-26T03:14:11.795Z,0.00
2022-07-26T03:15:11.391Z,0.00
2022-07-26T03:16:11.491Z,0.00
2022-07-26T03:17:11.380Z,0.00
2022-07-26T03:18:11.371Z,4.00
2022-07-26T03:19:11.353Z,4.00
2022-07-26T03:20:11.342Z,4.00
2022-07-26T03:21:11.347Z,0.00
2022-07-26T03:22:11.320Z,0.00
2022-07-26T03:23:11.300Z,0.00
2022-07-26T03:24:11.723Z,4.00
2022-07-26T03:25:11.289Z,4.00
2022-07-26T03:26:11.287Z,4.00
2022-07-26T03:27:11.276Z,4.00
2022-07-26T03:28:14.704Z,4.00
2022-07-26T03:29:12.231Z,8.00
2022-07-26T03:30:11.222Z,8.00
2022-07-26T03:31:11.299Z,8.00
2022-07-26T03:32:11.209Z,12.00
2022-07-26T03:33:11.189Z,12.00
2022-07-26T03:34:11.495Z,12.00
2022-07-26T03:35:11.175Z,12.00
2022-07-26T03:36:11.484Z,16.00
2022-07-26T03:37:11.152Z,16.00
2022-07-26T03:38:11.133Z,20.00
2022-07-26T03:39:11.130Z,20.00
2022-07-26T03:40:11.123Z,20.00
2022-07-26T03:41:13.403Z,24.00
2022-07-26T03:42:11.113Z,24.00
2022-07-26T03:43:11.087Z,24.00
2022-07-26T03:44:11.508Z,28.00
2022-07-26T03:45:11.075Z,28.00
2022-07-26T03:46:11.129Z,32.00
2022-07-26T03:47:11.057Z,32.00
2022-07-26T03:48:11.028Z,32.00
2022-07-26T03:49:16.414Z,32.00
2022-07-26T03:50:12.012Z,32.00
2022-07-26T03:51:10.993Z,32.00
2022-07-26T03:52:11.002Z,40.00
2022-07-26T03:53:10.977Z,44.00
2022-07-26T03:54:11.586Z,48.00
2022-07-26T03:55:10.948Z,52.00
2022-07-26T03:56:10.943Z,52.00
2022-07-26T03:57:10.945Z,52.00
2022-07-26T03:58:10.916Z,52.00
2022-07-26T03:59:10.904Z,68.00
2022-07-26T04:00:10.888Z,76.00
2022-07-26T04:01:10.926Z,88.00
2022-07-26T04:02:11.008Z,108.00
2022-07-26T04:03:10.859Z,116.00
2022-07-26T04:04:11.479Z,124.00
2022-07-26T04:05:10.831Z,128.00
2022-07-26T04:06:10.826Z,116.00
2022-07-26T04:07:10.834Z,112.00
2022-07-26T04:08:10.803Z,112.00
2022-07-26T04:09:10.784Z,116.00
2022-07-26T04:10:10.782Z,120.00
2022-07-26T04:11:10.760Z,116.00
2022-07-26T04:12:10.766Z,124.00
2022-07-26T04:13:10.745Z,120.00
2022-07-26T04:14:11.245Z,128.00
2022-07-26T04:15:10.723Z,112.00
2022-07-26T04:16:10.708Z,120.00
2022-07-26T04:17:10.796Z,128.00
2022-07-26T04:18:10.684Z,132.00
2022-07-26T04:19:10.677Z,136.00
2022-07-26T04:20:10.666Z,128.00
2022-07-26T04:21:10.657Z,144.00
2022-07-26T04:22:10.647Z,148.00
2022-07-26T04:23:11.812Z,160.00
2022-07-26T04:24:10.990Z,152.00
2022-07-26T04:25:10.604Z,140.00
2022-07-26T04:26:10.588Z,144.00
2022-07-26T04:27:10.580Z,152.00
2022-07-26T04:28:10.588Z,168.00
2022-07-26T04:29:11.626Z,196.00
2022-07-26T04:30:14.694Z,248.00
2022-07-26T04:31:11.607Z,296.00
2022-07-26T04:32:10.528Z,340.00
2022-07-26T04:33:10.526Z,408.00
2022-07-26T04:34:10.986Z,388.00
2022-07-26T04:35:10.497Z,308.00
2022-07-26T04:36:10.473Z,352.00
2022-07-26T04:37:10.462Z,408.00
2022-07-26T04:38:10.464Z,428.00
2022-07-26T04:39:10.439Z,508.00
2022-07-26T04:40:10.434Z,564.00
2022-07-26T04:41:10.424Z,468.00
2022-07-26T04:42:10.404Z,392.00
2022-07-26T04:43:15.716Z,324.00
2022-07-26T04:44:11.742Z,340.00
2022-07-26T04:45:10.378Z,380.00
2022-07-26T04:46:10.416Z,412.00
2022-07-26T04:47:10.361Z,452.00
2022-07-26T04:48:10.370Z,524.00
2022-07-26T04:49:10.433Z,744.00
2022-07-26T04:50:10.321Z,784.00
2022-07-26T04:51:10.303Z,664.00
2022-07-26T04:52:10.306Z,592.00
2022-07-26T04:53:10.315Z,612.00
2022-07-26T04:54:10.878Z,624.00
2022-07-26T04:55:10.261Z,676.00
2022-07-26T04:56:10.248Z,800.00
2022-07-26T04:57:10.240Z,812.00
2022-07-26T04:58:10.237Z,740.00
2022-07-26T04:59:10.241Z,712.00
2022-07-26T05:00:21.143Z,668.00
2022-07-26T05:01:11.523Z,656.00
2022-07-26T05:02:10.393Z,624.00
2022-07-26T05:03:10.252Z,604.00
2022-07-26T05:04:10.523Z,604.00
2022-07-26T05:05:10.147Z,628.00
2022-07-26T05:06:10.125Z,700.00
2022-07-26T05:07:10.122Z,788.00
2022-07-26T05:08:10.110Z,808.00
2022-07-26T05:09:10.112Z,784.00
2022-07-26T05:10:10.079Z,752.00
2022-07-26T05:11:10.075Z,772.00
2022-07-26T05:12:10.063Z,756.00
2022-07-26T05:13:10.050Z,740.00
2022-07-26T05:14:10.283Z,680.00
2022-07-26T05:15:14.056Z,604.00
2022-07-26T05:16:11.988Z,588.00
2022-07-26T05:17:10.593Z,612.00
2022-07-26T05:18:10.691Z,684.00
2022-07-26T05:19:10.001Z,748.00
2022-07-26T05:20:09.978Z,768.00
2022-07-26T05:21:09.963Z,840.00
2022-07-26T05:22:09.943Z,952.00
2022-07-26T05:23:09.937Z,1012.00
2022-07-26T05:24:10.359Z,1064.00
2022-07-26T05:25:09.929Z,1144.00
2022-07-26T05:26:09.915Z,1124.00
2022-07-26T05:27:09.915Z,1076.00
2022-07-26T05:28:09.883Z,1012.00
2022-07-26T05:29:09.892Z,1068.00
2022-07-26T05:30:09.860Z,1120.00
2022-07-26T05:31:09.923Z,1076.00
2022-07-26T05:32:09.836Z,1000.00
2022-07-26T05:33:09.828Z,900.00
2022-07-26T05:34:10.436Z,812.00
2022-07-26T05:35:09.816Z,772.00
2022-07-26T05:36:09.786Z,756.00
2022-07-26T05:37:09.780Z,752.00
2022-07-26T05:38:09.762Z,756.00
2022-07-26T05:39:15.674Z,784.00
2022-07-26T05:40:10.738Z,804.00
2022-07-26T05:41:09.739Z,824.00
2022-07-26T05:42:09.727Z,896.00
2022-07-26T05:43:09.723Z,992.00
2022-07-26T05:44:10.333Z,968.00
2022-07-26T05:45:09.685Z,908.00
2022-07-26T05:46:10.031Z,816.00
2022-07-26T05:47:09.718Z,764.00
2022-07-26T05:48:09.651Z,784.00
2022-07-26T05:49:09.817Z,720.00
2022-07-26T05:50:09.644Z,704.00
2022-07-26T05:51:09.629Z,740.00
2022-07-26T05:52:09.605Z,792.00
2022-07-26T05:53:09.596Z,832.00
2022-07-26T05:54:10.168Z,848.00
2022-07-26T05:55:09.579Z,844.00
2022-07-26T05:56:09.566Z,856.00
2022-07-26T05:57:09.549Z,888.00
2022-07-26T05:58:09.566Z,948.00
2022-07-26T05:59:09.559Z,960.00
2022-07-26T06:00:09.525Z,956.00
2022-07-26T06:01:09.510Z,920.00
2022-07-26T06:02:09.558Z,852.00
2022-07-26T06:03:09.482Z,788.00
2022-07-26T06:04:09.937Z,720.00
2022-07-26T06:05:09.465Z,644.00
2022-07-26T06:06:09.474Z,692.00
2022-07-26T06:07:09.447Z,748.00
2022-07-26T06:08:09.431Z,720.00
2022-07-26T06:09:09.439Z,616.00
2022-07-26T06:10:09.413Z,552.00
2022-07-26T06:11:09.401Z,460.00
2022-07-26T06:12:09.387Z,388.00
2022-07-26T06:13:09.377Z,412.00
2022-07-26T06:14:09.740Z,396.00
2022-07-26T06:15:14.864Z,416.00
2022-07-26T06:16:10.337Z,496.00
2022-07-26T06:17:09.357Z,556.00
2022-07-26T06:18:09.317Z,548.00
2022-07-26T06:19:09.321Z,496.00
2022-07-26T06:20:09.295Z,508.00
2022-07-26T06:21:09.278Z,540.00
2022-07-26T06:22:09.268Z,512.00
2022-07-26T06:23:09.258Z,536.00
2022-07-26T06:24:09.806Z,644.00
2022-07-26T06:25:09.239Z,668.00
2022-07-26T06:26:09.226Z,696.00
2022-07-26T06:27:09.207Z,772.00
2022-07-26T06:28:09.199Z,888.00
2022-07-26T06:29:09.205Z,1080.00
2022-07-26T06:30:09.174Z,1224.00
2022-07-26T06:31:09.160Z,1248.00
2022-07-26T06:32:09.273Z,1196.00
2022-07-26T06:33:09.146Z,1024.00
2022-07-26T06:34:10.077Z,784.00
2022-07-26T06:35:09.116Z,608.00
2022-07-26T06:36:09.120Z,616.00
2022-07-26T06:37:09.103Z,680.00
2022-07-26T06:38:09.088Z,764.00
2022-07-26T06:39:09.116Z,796.00
2022-07-26T06:40:09.062Z,756.00
2022-07-26T06:41:09.057Z,704.00
2022-07-26T06:42:09.044Z,780.00
2022-07-26T06:43:09.050Z,876.00
2022-07-26T06:44:09.316Z,780.00
2022-07-26T06:45:09.018Z,792.00
2022-07-26T06:46:09.026Z,852.00
2022-07-26T06:47:08.988Z,788.00
2022-07-26T06:48:08.981Z,936.00
2022-07-26T06:49:09.073Z,1168.00
2022-07-26T06:50:08.960Z,1452.00
2022-07-26T06:51:08.948Z,1580.00
2022-07-26T06:52:08.956Z,1496.00
2022-07-26T06:53:09.019Z,1420.00
2022-07-26T06:54:09.304Z,1684.00
2022-07-26T06:55:08.896Z,1672.00
2022-07-26T06:56:08.887Z,1312.00
2022-07-26T06:57:08.871Z,1340.00
2022-07-26T06:58:08.859Z,1544.00
2022-07-26T06:59:09.634Z,1804.00
2022-07-26T07:00:08.851Z,2164.00
2022-07-26T07:01:08.916Z,2444.00
2022-07-26T07:02:08.952Z,2524.00
2022-07-26T07:03:08.814Z,2540.00
2022-07-26T07:04:09.285Z,2304.00
2022-07-26T07:05:08.883Z,2064.00
2022-07-26T07:06:08.765Z,2024.00
2022-07-26T07:07:08.761Z,2092.00
2022-07-26T07:08:08.747Z,2216.00
2022-07-26T07:09:08.896Z,2372.00
2022-07-26T07:10:08.723Z,2440.00
2022-07-26T07:11:08.722Z,2632.00
2022-07-26T07:12:09.995Z,2892.00
2022-07-26T07:13:08.685Z,2916.00
2022-07-26T07:14:09.039Z,2692.00
2022-07-26T07:15:08.678Z,2756.00
2022-07-26T07:16:08.745Z,2900.00
2022-07-26T07:17:10.942Z,3056.00
2022-07-26T07:18:08.629Z,3116.00
2022-07-26T07:19:08.617Z,3248.00
2022-07-26T07:20:08.632Z,3456.00
2022-07-26T07:21:08.603Z,3040.00
2022-07-26T07:22:08.599Z,3164.00
2022-07-26T07:23:08.585Z,3388.00
2022-07-26T07:24:09.054Z,2876.00
2022-07-26T07:25:08.575Z,2532.00
2022-07-26T07:26:08.538Z,2564.00
2022-07-26T07:27:08.535Z,2992.00
2022-07-26T07:28:08.518Z,2924.00
2022-07-26T07:29:08.506Z,3316.00
2022-07-26T07:30:08.519Z,4008.00
2022-07-26T07:31:08.529Z,4084.00
2022-07-26T07:32:08.570Z,3628.00
2022-07-26T07:33:09.475Z,2636.00
2022-07-26T07:34:09.956Z,2296.00
2022-07-26T07:35:12.817Z,2176.00
2022-07-26T07:36:08.435Z,2488.00
2022-07-26T07:37:08.416Z,2528.00
2022-07-26T07:38:08.410Z,2448.00
2022-07-26T07:39:13.779Z,2868.00
2022-07-26T07:40:09.393Z,2720.00
2022-07-26T07:41:08.373Z,2420.00
2022-07-26T07:42:08.365Z,2524.00
2022-07-26T07:43:08.351Z,3584.00
2022-07-26T07:44:08.719Z,3812.00
2022-07-26T07:45:08.346Z,3664.00
2022-07-26T07:46:08.316Z,3492.00
2022-07-26T07:47:08.399Z,3580.00
2022-07-26T07:48:08.298Z,3428.00
2022-07-26T07:49:08.736Z,3908.00
2022-07-26T07:50:08.294Z,4696.00
2022-07-26T07:51:08.266Z,5036.00
2022-07-26T07:52:08.261Z,5236.00
2022-07-26T07:53:08.246Z,5516.00
2022-07-26T07:54:08.233Z,6012.00
2022-07-26T07:55:40.405Z,5296.00
2022-07-26T07:56:09.200Z,4224.00
2022-07-26T07:57:08.201Z,4812.00
2022-07-26T07:58:08.187Z,5724.00
2022-07-26T07:59:08.396Z,6192.00
2022-07-26T08:00:08.169Z,5024.00
2022-07-26T08:01:08.209Z,4708.00
2022-07-26T08:02:09.134Z,5132.00
2022-07-26T08:03:08.207Z,4412.00
2022-07-26T08:04:08.227Z,4588.00
2022-07-26T08:05:14.002Z,4444.00
2022-07-26T08:06:09.088Z,4124.00
2022-07-26T08:07:08.087Z,3784.00
2022-07-26T08:08:08.197Z,5228.00
2022-07-26T08:09:08.532Z,6400.00
2022-07-26T08:10:08.061Z,7084.00
2022-07-26T08:11:08.098Z,7704.00
2022-07-26T08:12:08.026Z,7588.00
2022-07-26T08:13:08.018Z,6684.00
2022-07-26T08:14:08.000Z,4476.00
2022-07-26T08:15:08.392Z,5196.00
2022-07-26T08:16:09.528Z,5168.00
2022-07-26T08:17:07.974Z,6160.00
2022-07-26T08:18:08.620Z,8228.00
2022-07-26T08:19:08.028Z,10008.00
2022-07-26T08:20:08.032Z,14152.00
2022-07-26T08:21:07.922Z,8820.00
2022-07-26T08:22:07.909Z,6652.00
2022-07-26T08:23:07.906Z,6680.00
2022-07-26T08:24:07.889Z,6404.00
2022-07-26T08:25:07.898Z,5536.00
2022-07-26T08:26:07.865Z,4848.00
2022-07-26T08:27:07.884Z,4664.00
2022-07-26T08:28:15.511Z,4284.00
2022-07-26T08:29:08.838Z,3600.00
2022-07-26T08:30:07.839Z,2064.00
2022-07-26T08:31:07.935Z,1940.00
2022-07-26T08:32:07.912Z,3028.00
2022-07-26T08:33:07.794Z,3796.00
2022-07-26T08:34:07.796Z,4648.00
2022-07-26T08:35:17.707Z,3888.00
2022-07-26T08:36:08.752Z,4468.00
2022-07-26T08:37:17.066Z,5256.00
2022-07-26T08:38:08.745Z,4668.00
2022-07-26T08:39:08.063Z,5032.00
2022-07-26T08:40:07.732Z,6200.00
2022-07-26T08:41:07.703Z,7128.00
2022-07-26T08:42:07.690Z,12904.00
2022-07-26T08:43:07.673Z,12016.00
2022-07-26T08:44:07.671Z,8264.00
2022-07-26T08:45:07.678Z,7836.00
2022-07-26T08:46:07.721Z,6428.00
2022-07-26T08:47:07.665Z,8720.00
2022-07-26T08:48:17.754Z,9408.00
2022-07-26T08:49:08.902Z,8004.00
2022-07-26T08:50:07.621Z,7192.00
2022-07-26T08:51:07.592Z,6872.00
2022-07-26T08:52:07.573Z,6340.00
2022-07-26T08:53:07.560Z,6588.00
2022-07-26T08:54:07.565Z,6044.00
2022-07-26T08:55:07.549Z,5364.00
2022-07-26T08:56:07.933Z,4732.00
2022-07-26T08:57:07.517Z,5488.00
2022-07-26T08:58:07.513Z,4044.00
2022-07-26T08:59:07.984Z,3632.00
2022-07-26T09:00:07.507Z,4160.00
2022-07-26T09:01:07.538Z,4496.00
2022-07-26T09:02:07.461Z,5056.00
2022-07-26T09:03:07.459Z,6420.00
2022-07-26T09:04:07.484Z,7240.00
2022-07-26T09:05:07.441Z,14572.00
2022-07-26T09:06:07.424Z,52256.00
2022-07-26T09:07:07.410Z,27424.00
2022-07-26T09:08:07.396Z,10760.00
2022-07-26T09:09:07.787Z,10560.00
2022-07-26T09:10:07.402Z,10180.00
2022-07-26T09:11:07.367Z,5052.00
2022-07-26T09:12:07.358Z,6488.00
2022-07-26T09:13:07.348Z,15092.00
2022-07-26T09:14:07.336Z,11720.00
2022-07-26T09:15:07.328Z,14840.00
2022-07-26T09:16:07.323Z,9372.00
2022-07-26T09:17:07.293Z,79744.00
2022-07-26T09:18:07.291Z,19808.00
2022-07-26T09:19:07.498Z,77600.00
2022-07-26T09:20:07.286Z,77440.00
2022-07-26T09:21:07.249Z,30912.00
2022-07-26T09:22:10.384Z,75488.00
2022-07-26T09:23:07.233Z,73600.00
2022-07-26T09:24:07.225Z,67808.00
2022-07-26T09:25:07.230Z,70560.00
2022-07-26T09:26:07.195Z,36960.00
2022-07-26T09:27:07.191Z,76864.00
2022-07-26T09:28:07.173Z,79936.00
2022-07-26T09:29:07.546Z,59744.00
2022-07-26T09:30:07.188Z,81056.00
2022-07-26T09:31:07.204Z,12672.00
2022-07-26T09:32:07.139Z,6716.00
2022-07-26T09:33:07.137Z,4108.00
2022-07-26T09:34:07.798Z,4144.00
2022-07-26T09:35:24.214Z,14264.00
2022-07-26T09:36:08.094Z,52864.00
2022-07-26T09:37:11.637Z,48768.00
2022-07-26T09:38:08.074Z,12792.00
2022-07-26T09:39:07.332Z,56160.00
2022-07-26T09:40:07.102Z,83104.00
2022-07-26T09:41:07.042Z,24128.00
2022-07-26T09:42:26.971Z,32064.00
2022-07-26T09:43:08.010Z,7496.00
2022-07-26T09:44:07.211Z,10204.00
2022-07-26T09:45:07.006Z,10192.00
2022-07-26T09:46:07.233Z,11932.00
2022-07-26T09:47:06.971Z,46400.00
2022-07-26T09:48:06.967Z,16160.00
2022-07-26T09:49:10.361Z,6356.00
2022-07-26T09:50:11.221Z,6052.00
2022-07-26T09:51:06.927Z,9660.00
2022-07-26T09:52:06.929Z,80000.00
2022-07-26T09:53:06.913Z,11320.00
2022-07-26T09:54:07.118Z,77568.00
2022-07-26T09:55:06.905Z,48032.00
2022-07-26T09:56:06.878Z,22048.00
2022-07-26T09:57:06.859Z,17248.00
2022-07-26T09:58:06.858Z,7932.00
2022-07-26T09:59:06.837Z,6188.00
2022-07-26T10:00:07.841Z,5052.00
2022-07-26T10:01:06.827Z,7168.00
2022-07-26T10:02:06.860Z,42272.00
2022-07-26T10:03:06.914Z,60896.00
2022-07-26T10:04:06.897Z,11464.00
2022-07-26T10:05:06.800Z,34560.00
2022-07-26T10:06:06.776Z,36992.00
2022-07-26T10:07:06.753Z,5392.00
2022-07-26T10:08:06.743Z,3188.00
2022-07-26T10:09:06.738Z,4676.00
2022-07-26T10:10:06.737Z,6856.00
2022-07-26T10:11:06.738Z,5764.00
2022-07-26T10:12:06.700Z,70336.00
2022-07-26T10:13:06.697Z,66720.00
2022-07-26T10:14:06.817Z,61376.00
2022-07-26T10:15:06.692Z,6832.00
2022-07-26T10:16:06.701Z,28928.00
2022-07-26T10:17:06.646Z,7844.00
2022-07-26T10:18:06.638Z,5620.00
2022-07-26T10:19:06.630Z,6336.00
2022-07-26T10:20:10.715Z,6684.00
2022-07-26T10:21:07.610Z,5704.00
2022-07-26T10:22:06.595Z,5320.00
2022-07-26T10:23:06.588Z,5292.00
2022-07-26T10:24:06.682Z,70432.00
2022-07-26T10:25:06.579Z,12916.00
2022-07-26T10:26:06.553Z,9680.00
2022-07-26T10:27:06.546Z,35936.00
2022-07-26T10:28:11.992Z,8200.00
2022-07-26T10:29:07.522Z,10056.00
2022-07-26T10:30:06.521Z,9752.00
2022-07-26T10:31:06.515Z,15160.00
2022-07-26T10:32:06.497Z,82240.00
2022-07-26T10:33:06.474Z,13852.00
2022-07-26T10:34:06.472Z,7120.00
2022-07-26T10:35:06.476Z,9852.00
2022-07-26T10:36:06.443Z,9388.00
2022-07-26T10:37:06.432Z,8696.00
2022-07-26T10:38:06.427Z,5024.00
2022-07-26T10:39:06.415Z,4040.00
2022-07-26T10:40:06.414Z,4044.00
2022-07-26T10:41:06.387Z,4276.00
2022-07-26T10:42:06.378Z,4256.00
2022-07-26T10:43:30.106Z,6404.00
2022-07-26T10:44:07.714Z,58944.00
2022-07-26T10:45:06.360Z,27296.00
2022-07-26T10:46:06.363Z,10828.00
2022-07-26T10:47:06.330Z,9876.00
2022-07-26T10:48:06.319Z,14732.00
2022-07-26T10:49:06.465Z,17760.00
2022-07-26T10:50:06.319Z,7216.00
2022-07-26T10:51:06.613Z,20000.00
2022-07-26T10:52:06.270Z,46144.00
2022-07-26T10:53:06.258Z,10928.00
2022-07-26T10:54:06.262Z,22368.00
2022-07-26T10:55:06.251Z,17664.00
2022-07-26T10:56:06.235Z,16384.00
2022-07-26T10:57:06.219Z,15296.00
2022-07-26T10:58:06.205Z,14468.00
2022-07-26T10:59:06.205Z,16352.00
2022-07-26T11:00:06.202Z,17792.00
2022-07-26T11:01:06.182Z,14664.00
2022-07-26T11:02:06.237Z,9920.00
2022-07-26T11:03:06.238Z,12388.00
2022-07-26T11:04:06.143Z,14976.00
2022-07-26T11:05:06.145Z,14228.00
2022-07-26T11:06:06.127Z,12352.00
2022-07-26T11:07:06.118Z,11764.00
2022-07-26T11:08:06.120Z,16800.00
2022-07-26T11:09:06.099Z,14572.00
2022-07-26T11:10:06.107Z,11528.00
2022-07-26T11:11:06.073Z,17088.00
2022-07-26T11:12:06.057Z,67584.00
2022-07-26T11:13:06.048Z,92992.00
2022-07-26T11:14:06.046Z,60160.00
2022-07-26T11:15:06.048Z,14164.00
2022-07-26T11:16:06.081Z,9364.00
2022-07-26T11:17:06.004Z,9404.00
2022-07-26T11:18:05.995Z,9780.00
2022-07-26T11:19:05.992Z,11504.00
2022-07-26T11:20:05.999Z,23808.00
2022-07-26T11:21:05.963Z,61088.00
2022-07-26T11:22:05.951Z,8732.00
2022-07-26T11:23:05.947Z,6832.00
2022-07-26T11:24:05.938Z,7512.00
2022-07-26T11:25:05.947Z,23904.00
2022-07-26T11:26:05.909Z,11076.00
2022-07-26T11:27:05.905Z,10832.00
2022-07-26T11:28:07.279Z,10896.00
2022-07-26T11:29:06.836Z,7616.00
2022-07-26T11:30:05.892Z,5132.00
2022-07-26T11:31:05.952Z,3704.00
2022-07-26T11:32:16.465Z,3368.00
2022-07-26T11:33:06.833Z,3752.00
2022-07-26T11:34:05.838Z,4552.00
2022-07-26T11:35:05.829Z,8076.00
2022-07-26T11:36:05.806Z,9940.00
2022-07-26T11:37:05.800Z,6888.00
2022-07-26T11:38:12.189Z,6672.00
2022-07-26T11:39:06.779Z,6240.00
2022-07-26T11:40:05.782Z,5288.00
2022-07-26T11:41:05.751Z,4108.00
2022-07-26T11:42:05.737Z,3324.00
2022-07-26T11:43:05.736Z,2852.00
2022-07-26T11:44:05.720Z,2316.00
2022-07-26T11:45:05.719Z,1860.00
2022-07-26T11:46:05.818Z,1552.00
2022-07-26T11:47:05.693Z,1312.00
2022-07-26T11:48:05.683Z,1120.00
2022-07-26T11:49:05.748Z,956.00
2022-07-26T11:50:18.718Z,864.00
2022-07-26T11:51:07.129Z,760.00
2022-07-26T11:52:05.632Z,688.00
2022-07-26T11:53:05.626Z,664.00
2022-07-26T11:54:05.616Z,656.00
2022-07-26T11:55:05.740Z,620.00
2022-07-26T11:56:05.593Z,572.00
2022-07-26T11:57:05.581Z,552.00
2022-07-26T11:58:05.573Z,536.00
2022-07-26T11:59:05.552Z,544.00
2022-07-26T12:00:05.696Z,612.00
2022-07-26T12:01:05.544Z,728.00
2022-07-26T12:02:05.519Z,860.00
2022-07-26T12:03:05.516Z,1004.00
2022-07-26T12:04:05.739Z,1020.00
2022-07-26T12:05:05.630Z,988.00
2022-07-26T12:06:05.500Z,1004.00
2022-07-26T12:07:05.462Z,1096.00
2022-07-26T12:08:05.526Z,1084.00
2022-07-26T12:09:05.449Z,940.00
2022-07-26T12:10:05.441Z,808.00
2022-07-26T12:11:05.441Z,712.00
2022-07-26T12:12:05.409Z,676.00
2022-07-26T12:13:05.400Z,696.00
2022-07-26T12:14:05.387Z,812.00
2022-07-26T12:15:05.548Z,1020.00
2022-07-26T12:16:05.459Z,1196.00
2022-07-26T12:17:05.362Z,1200.00
2022-07-26T12:18:05.349Z,1040.00
2022-07-26T12:19:05.331Z,948.00
2022-07-26T12:20:05.320Z,936.00
2022-07-26T12:21:07.122Z,960.00
2022-07-26T12:22:05.295Z,1036.00
2022-07-26T12:23:05.292Z,1104.00
2022-07-26T12:24:05.283Z,1168.00
2022-07-26T12:25:05.268Z,1192.00
2022-07-26T12:26:09.770Z,1336.00
2022-07-26T12:27:05.242Z,1640.00
2022-07-26T12:28:05.243Z,1968.00
2022-07-26T12:29:05.226Z,2172.00